createdAt,value
2019-06-10T00:00:32.213Z,47.73
2019-06-10T00:05:38.439Z,50.03
2019-06-10T00:10:44.403Z,35.00
2019-06-10T00:15:51.554Z,42.87
2019-06-10T00:20:57.550Z,40.47
2019-06-10T00:26:05.890Z,35.83
2019-06-10T00:31:11.583Z,29.40
2019-06-10T00:36:17.687Z,29.60
2019-06-10T00:41:23.809Z,33.73
2019-06-10T00:46:31.697Z,40.03
2019-06-10T00:51:37.515Z,39.40
2019-06-10T00:56:43.571Z,44.20
2019-06-10T01:01:50.910Z,37.13
2019-06-10T01:06:57.041Z,36.67
2019-06-10T01:12:02.913Z,33.33
2019-06-10T01:17:11.855Z,34.50
2019-06-10T01:22:17.322Z,35.90
2019-06-10T01:27:24.081Z,37.23
2019-06-10T01:32:31.243Z,32.07
2019-06-10T01:37:37.294Z,30.63
2019-06-10T01:42:43.244Z,40.97
2019-06-10T01:47:51.095Z,32.87
2019-06-10T01:52:56.787Z,33.13
2019-06-10T01:58:02.833Z,27.27
2019-06-10T02:03:13.528Z,31.87
2019-06-10T02:08:21.914Z,29.27
2019-06-10T02:13:33.482Z,34.20
2019-06-10T02:18:42.223Z,27.90
2019-06-10T02:23:47.572Z,26.60
2019-06-10T02:28:53.445Z,26.00
2019-06-10T02:34:02.255Z,27.40
2019-06-10T02:39:09.695Z,28.70
2019-06-10T02:44:20.919Z,25.97
2019-06-10T02:49:46.924Z,22.57
2019-06-10T02:54:35.081Z,27.57
2019-06-10T02:59:38.918Z,26.50
2019-06-10T03:04:45.053Z,26.50
2019-06-10T03:09:53.816Z,23.37
2019-06-10T03:14:58.544Z,23.00
2019-06-10T03:20:04.701Z,27.80
2019-06-10T03:25:13.180Z,23.90
2019-06-10T03:30:28.956Z,23.70
2019-06-10T03:35:28.369Z,22.70
2019-06-10T03:40:34.489Z,23.83
2019-06-10T03:45:42.438Z,20.97
2019-06-10T03:50:48.114Z,24.80
2019-06-10T03:55:54.050Z,22.37
2019-06-10T04:01:02.788Z,17.57
2019-06-10T04:06:07.811Z,19.80
2019-06-10T04:11:14.213Z,25.20
2019-06-10T04:16:22.263Z,20.00
2019-06-10T04:21:28.404Z,20.37
2019-06-10T04:26:34.474Z,20.73
2019-06-10T04:31:42.300Z,21.63
2019-06-10T04:36:48.073Z,24.13
2019-06-10T04:41:54.037Z,20.47
2019-06-10T04:47:02.737Z,23.27
2019-06-10T04:52:08.382Z,28.97
2019-06-10T04:57:14.481Z,25.10
2019-06-10T05:02:23.775Z,26.03
2019-06-10T05:07:32.034Z,24.80
2019-06-10T05:12:35.726Z,18.67
2019-06-10T05:17:43.757Z,19.93
2019-06-10T05:22:49.313Z,17.20
2019-06-10T05:27:55.421Z,19.63
2019-06-10T05:33:02.996Z,17.80
2019-06-10T05:38:09.897Z,25.10
2019-06-10T05:43:15.814Z,31.50
2019-06-10T05:48:23.924Z,33.67
2019-06-10T05:53:31.522Z,36.60
2019-06-10T05:58:37.714Z,34.97
2019-06-10T06:03:44.120Z,30.00
2019-06-10T06:08:50.272Z,40.60
2019-06-10T06:13:56.180Z,26.30
2019-06-10T06:19:03.255Z,30.97
2019-06-10T06:24:09.604Z,20.53
2019-06-10T06:29:15.593Z,23.10
2019-06-10T06:34:22.458Z,34.27
2019-06-10T06:39:29.022Z,25.67
2019-06-10T06:44:37.478Z,33.93
2019-06-10T06:49:42.779Z,17.17
2019-06-10T06:54:48.650Z,17.40
2019-06-10T06:59:54.737Z,10.73
2019-06-10T07:05:03.164Z,15.63
2019-06-10T07:10:09.335Z,13.07
2019-06-10T07:15:15.306Z,16.47
2019-06-10T07:20:22.996Z,17.57
2019-06-10T07:25:28.905Z,11.60
2019-06-10T07:30:37.643Z,13.33
2019-06-10T07:35:44.121Z,11.73
2019-06-10T07:40:50.028Z,14.80
2019-06-10T07:45:55.996Z,14.73
2019-06-10T07:51:02.759Z,14.20
2019-06-10T07:56:09.177Z,11.30
2019-06-10T08:01:15.264Z,8.23
2019-06-10T08:06:22.834Z,13.63
2019-06-10T08:11:28.696Z,6.50
2019-06-10T08:16:35.688Z,8.40
2019-06-10T08:21:46.103Z,9.20
2019-06-10T08:26:49.483Z,6.73
2019-06-10T08:31:55.345Z,7.27
2019-06-10T08:37:04.348Z,14.27
2019-06-10T08:42:09.629Z,13.63
2019-06-10T08:47:15.704Z,9.83
2019-06-10T08:52:23.743Z,5.70
2019-06-10T08:57:29.356Z,11.17
2019-06-10T09:02:35.512Z,7.73
2019-06-10T09:07:45.856Z,9.50
2019-06-10T09:12:53.689Z,12.53
2019-06-10T09:17:57.075Z,9.80
2019-06-10T09:23:17.834Z,13.67
2019-06-10T09:28:12.716Z,15.97
2019-06-10T09:33:18.532Z,10.87
2019-06-10T09:38:24.592Z,10.17
2019-06-10T09:43:32.989Z,8.57
2019-06-10T09:48:38.291Z,10.47
2019-06-10T09:53:54.524Z,12.10
2019-06-10T09:58:55.098Z,8.83
2019-06-10T10:04:00.617Z,13.03
2019-06-10T10:09:08.325Z,7.73
2019-06-10T10:14:16.028Z,11.63
2019-06-10T10:19:23.176Z,9.47
2019-06-10T10:24:29.837Z,15.07
2019-06-10T10:29:35.967Z,11.50
2019-06-10T10:34:52.518Z,16.53
2019-06-10T10:39:58.428Z,8.87
2019-06-10T10:45:04.519Z,11.97
2019-06-10T10:50:13.966Z,17.37
2019-06-10T10:55:22.194Z,10.87
2019-06-10T11:00:37.189Z,9.00
2019-06-10T11:05:38.727Z,10.50
2019-06-10T11:10:47.841Z,15.43
2019-06-10T11:15:56.625Z,12.53
2019-06-10T11:21:04.925Z,14.23
2019-06-10T11:26:12.971Z,14.87
2019-06-10T11:31:18.364Z,11.97
2019-06-10T11:36:24.505Z,12.30
2019-06-10T11:41:32.456Z,11.37
2019-06-10T11:46:38.381Z,11.73
2019-06-10T11:51:44.267Z,15.18
2019-06-10T11:56:52.913Z,7.78
2019-06-10T12:02:00.413Z,10.50
2019-06-10T12:07:05.725Z,12.55
2019-06-10T12:12:12.943Z,11.30
2019-06-10T12:17:39.955Z,7.73
2019-06-10T12:22:26.956Z,6.53
2019-06-10T12:27:32.911Z,10.13
2019-06-10T12:32:38.813Z,7.80
2019-06-10T12:37:44.991Z,8.37
2019-06-10T12:42:53.075Z,6.60
2019-06-10T12:47:59.991Z,5.65
2019-06-10T12:53:07.258Z,11.77
2019-06-10T12:58:13.438Z,9.77
2019-06-10T13:03:19.822Z,7.17
2019-06-10T13:08:28.756Z,8.95
2019-06-10T13:13:34.712Z,6.47
2019-06-10T13:18:40.782Z,7.03
2019-06-10T13:23:46.680Z,6.53
2019-06-10T13:28:52.741Z,8.95
2019-06-10T13:34:03.334Z,6.50
2019-06-10T13:39:10.445Z,10.05
2019-06-10T13:44:16.811Z,8.33
2019-06-10T13:49:25.551Z,7.58
2019-06-10T13:54:31.231Z,4.93
2019-06-10T13:59:37.503Z,6.57
2019-06-10T14:04:43.631Z,7.13
2019-06-10T14:09:49.728Z,6.97
2019-06-10T14:14:55.673Z,7.70
2019-06-10T14:20:01.827Z,9.18
2019-06-10T14:25:09.791Z,5.42
2019-06-10T14:30:16.692Z,5.25
2019-06-10T14:35:22.713Z,5.53
2019-06-10T14:40:28.644Z,60.15
2019-06-10T14:45:34.550Z,11.50
2019-06-10T14:50:43.296Z,9.58
2019-06-10T14:55:48.270Z,6.65
2019-06-10T15:00:54.778Z,6.45
2019-06-10T15:06:03.033Z,8.05
2019-06-10T15:11:09.466Z,6.30
2019-06-10T15:16:16.467Z,10.10
2019-06-10T15:21:23.228Z,6.62
2019-06-10T15:26:29.326Z,8.75
2019-06-10T15:31:35.286Z,8.45
2019-06-10T15:36:43.255Z,10.78
2019-06-10T15:41:48.835Z,6.35
2019-06-10T15:46:54.833Z,6.15
2019-06-10T15:52:03.068Z,6.08
2019-06-10T15:57:22.717Z,9.13
2019-06-10T16:02:18.238Z,22.02
2019-06-10T16:07:25.568Z,6.83
2019-06-10T16:12:33.022Z,4.85
2019-06-10T16:17:39.224Z,4.12
2019-06-10T16:22:45.747Z,5.95
2019-06-10T16:27:54.328Z,8.35
2019-06-10T16:32:59.236Z,3.85
2019-06-10T16:38:05.255Z,6.87
2019-06-10T16:43:11.199Z,6.22
2019-06-10T16:48:17.527Z,6.30
2019-06-10T16:53:28.321Z,7.90
2019-06-10T16:58:33.202Z,7.33
2019-06-10T17:03:38.735Z,11.67
2019-06-10T17:08:44.661Z,5.23
2019-06-10T17:13:52.567Z,8.53
2019-06-10T17:18:58.195Z,9.80
2019-06-10T17:24:04.274Z,6.17
2019-06-10T17:29:10.238Z,5.57
2019-06-10T17:34:16.343Z,8.07
2019-06-10T17:39:24.720Z,3.90
2019-06-10T17:44:31.124Z,4.63
2019-06-10T17:49:37.721Z,5.93
2019-06-10T17:54:44.654Z,8.23
2019-06-10T17:59:52.447Z,6.07
2019-06-10T18:04:58.426Z,10.63
2019-06-10T18:10:05.116Z,7.57
2019-06-10T18:15:12.527Z,6.00
2019-06-10T18:20:18.626Z,10.07
2019-06-10T18:25:24.708Z,5.60
2019-06-10T18:30:35.564Z,15.50
2019-06-10T18:35:38.950Z,8.90
2019-06-10T18:40:44.820Z,10.40
2019-06-10T18:45:53.284Z,11.90
2019-06-10T18:50:58.654Z,7.27
2019-06-10T18:56:04.736Z,19.67
2019-06-10T19:01:13.385Z,6.90
2019-06-10T19:06:19.300Z,8.63
2019-06-10T19:11:34.081Z,10.17
2019-06-10T19:16:40.224Z,11.50
2019-06-10T19:22:01.506Z,8.63
2019-06-10T19:26:54.119Z,9.73
2019-06-10T19:32:00.303Z,13.60
2019-06-10T19:37:06.276Z,8.77
2019-06-10T19:42:13.016Z,13.93
2019-06-10T19:47:20.305Z,16.73
2019-06-10T19:52:26.178Z,24.90
2019-06-10T19:57:32.823Z,27.50
2019-06-10T20:02:42.115Z,15.07
2019-06-10T20:07:50.600Z,12.73
2019-06-10T20:12:55.464Z,10.40
2019-06-10T20:18:02.858Z,21.07
2019-06-10T20:23:09.298Z,18.80
2019-06-10T20:28:15.255Z,15.77
2019-06-10T20:33:38.427Z,12.40
2019-06-10T20:38:47.255Z,13.47
2019-06-10T20:43:55.077Z,16.73
2019-06-10T20:49:03.313Z,13.73
2019-06-10T20:54:09.759Z,19.40
2019-06-10T20:59:17.934Z,17.95
2019-06-10T21:04:25.667Z,15.60
2019-06-10T21:09:33.667Z,15.40
2019-06-10T21:14:42.723Z,15.60
2019-06-10T21:19:49.185Z,22.17
2019-06-10T21:24:55.278Z,18.17
2019-06-10T21:30:03.112Z,19.67
2019-06-10T21:35:09.356Z,16.33
2019-06-10T21:40:15.432Z,13.80
2019-06-10T21:45:22.887Z,20.57
2019-06-10T21:50:28.885Z,18.73
2019-06-10T21:55:34.833Z,22.07
2019-06-10T22:01:03.319Z,38.77
2019-06-10T22:05:56.277Z,11.63
2019-06-10T22:11:02.557Z,19.20
2019-06-10T22:16:08.764Z,20.53
2019-06-10T22:21:14.820Z,15.27
2019-06-10T22:26:22.461Z,16.93
2019-06-10T22:31:28.252Z,17.93
2019-06-10T22:36:34.146Z,21.77
2019-06-10T22:41:42.488Z,21.80
2019-06-10T22:46:48.059Z,20.33
2019-06-10T22:51:56.558Z,20.53
2019-06-10T22:57:02.844Z,19.10
2019-06-10T23:02:09.014Z,20.53
2019-06-10T23:07:15.013Z,17.93
2019-06-10T23:12:21.400Z,21.93
2019-06-10T23:17:27.313Z,21.50
2019-06-10T23:22:33.332Z,16.83
2019-06-10T23:27:43.754Z,22.60
2019-06-10T23:32:46.825Z,17.93
2019-06-10T23:37:55.128Z,18.77
2019-06-10T23:43:01.678Z,21.87
2019-06-10T23:48:07.904Z,17.60
2019-06-10T23:53:13.942Z,20.23
2019-06-10T23:58:21.993Z,12.70
